sensor_id;sensor_type;location;lat;lon;timestamp;temperature;humidity
71523;HTU21D;59343;51.102;5.884;2023-08-06T00:02:03;17.88;79.34
71523;HTU21D;59343;51.102;5.884;2023-08-06T00:04:29;17.89;79.48
71523;HTU21D;59343;51.102;5.884;2023-08-06T00:06:56;17.88;79.37
71523;HTU21D;59343;51.102;5.884;2023-08-06T00:09:22;17.85;79.45
71523;HTU21D;59343;51.102;5.884;2023-08-06T00:11:48;17.85;79.59
71523;HTU21D;59343;51.102;5.884;2023-08-06T00:14:14;17.83;79.70
71523;HTU21D;59343;51.102;5.884;2023-08-06T00:16:44;17.85;79.78
71523;HTU21D;59343;51.102;5.884;2023-08-06T00:19:13;17.84;79.76
71523;HTU21D;59343;51.102;5.884;2023-08-06T00:21:39;17.85;79.62
71523;HTU21D;59343;51.102;5.884;2023-08-06T00:24:05;17.87;79.72
71523;HTU21D;59343;51.102;5.884;2023-08-06T00:26:33;17.87;79.64
71523;HTU21D;59343;51.102;5.884;2023-08-06T00:29:00;17.85;79.65
71523;HTU21D;59343;51.102;5.884;2023-08-06T00:31:26;17.87;79.80
71523;HTU21D;59343;51.102;5.884;2023-08-06T00:33:52;17.87;79.93
71523;HTU21D;59343;51.102;5.884;2023-08-06T00:36:18;17.83;79.67
71523;HTU21D;59343;51.102;5.884;2023-08-06T00:38:45;17.80;79.49
71523;HTU21D;59343;51.102;5.884;2023-08-06T00:41:11;17.77;79.56
71523;HTU21D;59343;51.102;5.884;2023-08-06T00:43:37;17.75;79.66
71523;HTU21D;59343;51.102;5.884;2023-08-06T00:46:03;17.73;79.77
71523;HTU21D;59343;51.102;5.884;2023-08-06T00:48:32;17.73;79.83
71523;HTU21D;59343;51.102;5.884;2023-08-06T00:51:01;17.68;79.76
71523;HTU21D;59343;51.102;5.884;2023-08-06T00:53:27;17.67;79.91
71523;HTU21D;59343;51.102;5.884;2023-08-06T00:55:53;17.65;79.92
71523;HTU21D;59343;51.102;5.884;2023-08-06T00:58:20;17.61;79.90
71523;HTU21D;59343;51.102;5.884;2023-08-06T01:00:46;17.59;80.02
71523;HTU21D;59343;51.102;5.884;2023-08-06T01:03:12;17.55;80.15
71523;HTU21D;59343;51.102;5.884;2023-08-06T01:05:38;17.52;80.27
71523;HTU21D;59343;51.102;5.884;2023-08-06T01:13:28;17.46;80.27
71523;HTU21D;59343;51.102;5.884;2023-08-06T01:15:58;17.46;80.38
71523;HTU21D;59343;51.102;5.884;2023-08-06T01:18:26;17.45;80.47
71523;HTU21D;59343;51.102;5.884;2023-08-06T01:20:52;17.45;80.57
71523;HTU21D;59343;51.102;5.884;2023-08-06T01:23:19;17.46;80.55
71523;HTU21D;59343;51.102;5.884;2023-08-06T01:28:44;17.45;80.58
71523;HTU21D;59343;51.102;5.884;2023-08-06T01:31:43;17.49;80.33
71523;HTU21D;59343;51.102;5.884;2023-08-06T01:34:17;17.45;80.38
71523;HTU21D;59343;51.102;5.884;2023-08-06T01:36:44;17.44;80.41
71523;HTU21D;59343;51.102;5.884;2023-08-06T01:39:11;17.39;80.35
71523;HTU21D;59343;51.102;5.884;2023-08-06T01:41:37;17.40;80.30
71523;HTU21D;59343;51.102;5.884;2023-08-06T01:44:03;17.39;80.39
71523;HTU21D;59343;51.102;5.884;2023-08-06T01:46:31;17.37;80.56
71523;HTU21D;59343;51.102;5.884;2023-08-06T01:48:57;17.38;80.59
71523;HTU21D;59343;51.102;5.884;2023-08-06T01:51:26;17.39;80.71
71523;HTU21D;59343;51.102;5.884;2023-08-06T01:53:52;17.40;80.81
71523;HTU21D;59343;51.102;5.884;2023-08-06T01:56:18;17.41;80.93
71523;HTU21D;59343;51.102;5.884;2023-08-06T01:58:44;17.43;81.01
71523;HTU21D;59343;51.102;5.884;2023-08-06T02:01:10;17.45;81.22
71523;HTU21D;59343;51.102;5.884;2023-08-06T02:03:37;17.45;81.14
71523;HTU21D;59343;51.102;5.884;2023-08-06T02:06:03;17.46;81.05
71523;HTU21D;59343;51.102;5.884;2023-08-06T02:08:29;17.48;80.89
71523;HTU21D;59343;51.102;5.884;2023-08-06T02:10:55;17.48;80.89
71523;HTU21D;59343;51.102;5.884;2023-08-06T02:13:21;17.49;81.04
71523;HTU21D;59343;51.102;5.884;2023-08-06T02:15:47;17.49;81.15
71523;HTU21D;59343;51.102;5.884;2023-08-06T02:18:16;17.49;81.48
71523;HTU21D;59343;51.102;5.884;2023-08-06T02:20:42;17.50;81.82
71523;HTU21D;59343;51.102;5.884;2023-08-06T02:23:09;17.50;81.95
71523;HTU21D;59343;51.102;5.884;2023-08-06T02:25:35;17.49;82.28
71523;HTU21D;59343;51.102;5.884;2023-08-06T02:28:01;17.49;82.34
71523;HTU21D;59343;51.102;5.884;2023-08-06T02:30:27;17.48;82.33
71523;HTU21D;59343;51.102;5.884;2023-08-06T02:32:53;17.49;82.46
71523;HTU21D;59343;51.102;5.884;2023-08-06T02:35:19;17.50;82.49
71523;HTU21D;59343;51.102;5.884;2023-08-06T02:37:47;17.49;82.75
71523;HTU21D;59343;51.102;5.884;2023-08-06T02:40:16;17.49;82.93
71523;HTU21D;59343;51.102;5.884;2023-08-06T02:42:42;17.47;83.16
71523;HTU21D;59343;51.102;5.884;2023-08-06T02:45:11;17.46;83.35
71523;HTU21D;59343;51.102;5.884;2023-08-06T02:47:50;17.46;83.23
71523;HTU21D;59343;51.102;5.884;2023-08-06T02:54:16;17.46;83.47
71523;HTU21D;59343;51.102;5.884;2023-08-06T02:58:04;17.46;83.80
71523;HTU21D;59343;51.102;5.884;2023-08-06T03:01:47;17.46;84.10
71523;HTU21D;59343;51.102;5.884;2023-08-06T03:04:52;17.47;84.10
71523;HTU21D;59343;51.102;5.884;2023-08-06T03:08:12;17.45;84.26
71523;HTU21D;59343;51.102;5.884;2023-08-06T03:14:11;17.43;84.48
71523;HTU21D;59343;51.102;5.884;2023-08-06T03:17:45;17.39;84.39
71523;HTU21D;59343;51.102;5.884;2023-08-06T03:21:23;17.37;84.61
71523;HTU21D;59343;51.102;5.884;2023-08-06T03:33:26;17.38;84.94
71523;HTU21D;59343;51.102;5.884;2023-08-06T03:36:38;17.36;85.11
71523;HTU21D;59343;51.102;5.884;2023-08-06T03:40:20;17.35;85.38
71523;HTU21D;59343;51.102;5.884;2023-08-06T03:43:39;17.36;85.55
71523;HTU21D;59343;51.102;5.884;2023-08-06T03:46:38;17.38;85.47
71523;HTU21D;59343;51.102;5.884;2023-08-06T03:49:14;17.38;85.32
71523;HTU21D;59343;51.102;5.884;2023-08-06T03:51:46;17.39;85.14
71523;HTU21D;59343;51.102;5.884;2023-08-06T03:54:47;17.34;85.35
71523;HTU21D;59343;51.102;5.884;2023-08-06T03:57:15;17.35;85.45
71523;HTU21D;59343;51.102;5.884;2023-08-06T03:59:50;17.36;85.57
71523;HTU21D;59343;51.102;5.884;2023-08-06T04:02:26;17.37;85.64
71523;HTU21D;59343;51.102;5.884;2023-08-06T04:04:56;17.37;85.67
71523;HTU21D;59343;51.102;5.884;2023-08-06T04:07:26;17.36;85.66
71523;HTU21D;59343;51.102;5.884;2023-08-06T04:10:00;17.37;85.56
71523;HTU21D;59343;51.102;5.884;2023-08-06T04:12:27;17.36;85.53
71523;HTU21D;59343;51.102;5.884;2023-08-06T04:14:54;17.36;85.56
71523;HTU21D;59343;51.102;5.884;2023-08-06T04:17:22;17.36;85.66
71523;HTU21D;59343;51.102;5.884;2023-08-06T04:19:58;17.35;85.73
71523;HTU21D;59343;51.102;5.884;2023-08-06T04:22:56;17.35;85.67
71523;HTU21D;59343;51.102;5.884;2023-08-06T04:25:40;17.36;85.75
71523;HTU21D;59343;51.102;5.884;2023-08-06T04:28:17;17.36;85.77
71523;HTU21D;59343;51.102;5.884;2023-08-06T04:30:48;17.38;85.84
71523;HTU21D;59343;51.102;5.884;2023-08-06T04:33:24;17.39;85.75
71523;HTU21D;59343;51.102;5.884;2023-08-06T04:35:54;17.38;85.93
71523;HTU21D;59343;51.102;5.884;2023-08-06T04:38:26;17.43;85.81
71523;HTU21D;59343;51.102;5.884;2023-08-06T04:40:53;17.45;85.82
71523;HTU21D;59343;51.102;5.884;2023-08-06T04:43:21;17.47;85.91
71523;HTU21D;59343;51.102;5.884;2023-08-06T04:45:55;17.49;85.73
71523;HTU21D;59343;51.102;5.884;2023-08-06T04:48:33;17.48;85.67
71523;HTU21D;59343;51.102;5.884;2023-08-06T04:51:03;17.49;85.74
71523;HTU21D;59343;51.102;5.884;2023-08-06T04:53:31;17.49;85.71
71523;HTU21D;59343;51.102;5.884;2023-08-06T04:56:00;17.49;85.68
71523;HTU21D;59343;51.102;5.884;2023-08-06T04:58:26;17.48;85.70
71523;HTU21D;59343;51.102;5.884;2023-08-06T05:00:53;17.49;85.78
71523;HTU21D;59343;51.102;5.884;2023-08-06T05:03:20;17.50;85.71
71523;HTU21D;59343;51.102;5.884;2023-08-06T05:05:46;17.50;85.52
71523;HTU21D;59343;51.102;5.884;2023-08-06T05:08:16;17.45;85.51
71523;HTU21D;59343;51.102;5.884;2023-08-06T05:10:45;17.45;85.58
71523;HTU21D;59343;51.102;5.884;2023-08-06T05:13:12;17.45;85.66
71523;HTU21D;59343;51.102;5.884;2023-08-06T05:15:42;17.44;85.74
71523;HTU21D;59343;51.102;5.884;2023-08-06T05:18:09;17.47;85.75
71523;HTU21D;59343;51.102;5.884;2023-08-06T05:20:39;17.50;85.79
71523;HTU21D;59343;51.102;5.884;2023-08-06T05:23:05;17.53;85.75
71523;HTU21D;59343;51.102;5.884;2023-08-06T05:25:31;17.55;85.74
71523;HTU21D;59343;51.102;5.884;2023-08-06T05:28:01;17.55;85.95
71523;HTU21D;59343;51.102;5.884;2023-08-06T05:30:28;17.58;86.09
71523;HTU21D;59343;51.102;5.884;2023-08-06T05:32:58;17.62;85.96
71523;HTU21D;59343;51.102;5.884;2023-08-06T05:35:27;17.62;85.84
71523;HTU21D;59343;51.102;5.884;2023-08-06T05:37:56;17.63;85.73
71523;HTU21D;59343;51.102;5.884;2023-08-06T05:40:24;17.63;85.74
71523;HTU21D;59343;51.102;5.884;2023-08-06T05:42:57;17.60;85.70
71523;HTU21D;59343;51.102;5.884;2023-08-06T05:45:24;17.56;85.75
71523;HTU21D;59343;51.102;5.884;2023-08-06T05:47:50;17.52;85.93
71523;HTU21D;59343;51.102;5.884;2023-08-06T05:50:17;17.53;85.93
71523;HTU21D;59343;51.102;5.884;2023-08-06T05:52:44;17.52;86.01
71523;HTU21D;59343;51.102;5.884;2023-08-06T05:55:26;17.55;85.98
71523;HTU21D;59343;51.102;5.884;2023-08-06T05:58:08;17.59;86.04
71523;HTU21D;59343;51.102;5.884;2023-08-06T06:00:40;17.55;85.73
71523;HTU21D;59343;51.102;5.884;2023-08-06T06:03:07;17.53;85.86
71523;HTU21D;59343;51.102;5.884;2023-08-06T06:05:39;17.55;85.87
71523;HTU21D;59343;51.102;5.884;2023-08-06T06:08:05;17.54;85.97
71523;HTU21D;59343;51.102;5.884;2023-08-06T06:10:31;17.56;85.98
71523;HTU21D;59343;51.102;5.884;2023-08-06T06:12:58;17.58;85.87
71523;HTU21D;59343;51.102;5.884;2023-08-06T06:15:24;17.55;85.92
71523;HTU21D;59343;51.102;5.884;2023-08-06T06:17:49;17.52;86.25
71523;HTU21D;59343;51.102;5.884;2023-08-06T06:20:15;17.52;86.58
71523;HTU21D;59343;51.102;5.884;2023-08-06T06:22:41;17.51;86.70
71523;HTU21D;59343;51.102;5.884;2023-08-06T06:25:07;17.51;86.77
71523;HTU21D;59343;51.102;5.884;2023-08-06T06:27:33;17.51;86.80
71523;HTU21D;59343;51.102;5.884;2023-08-06T06:29:59;17.52;86.90
71523;HTU21D;59343;51.102;5.884;2023-08-06T06:32:25;17.55;86.85
71523;HTU21D;59343;51.102;5.884;2023-08-06T06:34:51;17.56;86.99
71523;HTU21D;59343;51.102;5.884;2023-08-06T06:37:17;17.56;87.12
71523;HTU21D;59343;51.102;5.884;2023-08-06T06:39:43;17.56;87.23
71523;HTU21D;59343;51.102;5.884;2023-08-06T06:42:10;17.54;87.19
71523;HTU21D;59343;51.102;5.884;2023-08-06T06:44:42;17.50;87.36
71523;HTU21D;59343;51.102;5.884;2023-08-06T06:47:08;17.45;87.41
71523;HTU21D;59343;51.102;5.884;2023-08-06T06:49:34;17.40;87.56
71523;HTU21D;59343;51.102;5.884;2023-08-06T06:51:59;17.34;87.92
71523;HTU21D;59343;51.102;5.884;2023-08-06T06:54:25;17.31;88.17
71523;HTU21D;59343;51.102;5.884;2023-08-06T06:56:51;17.26;88.44
71523;HTU21D;59343;51.102;5.884;2023-08-06T06:59:17;17.24;88.61
71523;HTU21D;59343;51.102;5.884;2023-08-06T07:01:43;17.20;88.47
71523;HTU21D;59343;51.102;5.884;2023-08-06T07:04:09;17.16;88.70
71523;HTU21D;59343;51.102;5.884;2023-08-06T07:06:35;17.15;88.78
71523;HTU21D;59343;51.102;5.884;2023-08-06T07:09:01;17.14;88.92
71523;HTU21D;59343;51.102;5.884;2023-08-06T07:11:27;17.17;88.86
71523;HTU21D;59343;51.102;5.884;2023-08-06T07:13:58;17.18;88.76
71523;HTU21D;59343;51.102;5.884;2023-08-06T07:16:25;17.18;88.82
71523;HTU21D;59343;51.102;5.884;2023-08-06T07:18:52;17.16;88.80
71523;HTU21D;59343;51.102;5.884;2023-08-06T07:21:19;17.14;88.82
71523;HTU21D;59343;51.102;5.884;2023-08-06T07:23:45;17.11;88.96
71523;HTU21D;59343;51.102;5.884;2023-08-06T07:26:11;17.06;88.93
71523;HTU21D;59343;51.102;5.884;2023-08-06T07:28:37;17.04;89.05
71523;HTU21D;59343;51.102;5.884;2023-08-06T07:31:03;17.07;89.10
71523;HTU21D;59343;51.102;5.884;2023-08-06T07:33:29;17.11;88.91
71523;HTU21D;59343;51.102;5.884;2023-08-06T07:35:55;17.07;88.71
71523;HTU21D;59343;51.102;5.884;2023-08-06T07:38:21;17.09;88.90
71523;HTU21D;59343;51.102;5.884;2023-08-06T07:40:47;17.11;88.89
71523;HTU21D;59343;51.102;5.884;2023-08-06T07:43:13;17.17;88.89
71523;HTU21D;59343;51.102;5.884;2023-08-06T07:45:39;17.24;88.84
71523;HTU21D;59343;51.102;5.884;2023-08-06T07:48:05;17.29;88.99
71523;HTU21D;59343;51.102;5.884;2023-08-06T07:50:32;17.34;88.96
71523;HTU21D;59343;51.102;5.884;2023-08-06T07:52:58;17.37;88.51
71523;HTU21D;59343;51.102;5.884;2023-08-06T07:55:25;17.26;87.41
71523;HTU21D;59343;51.102;5.884;2023-08-06T07:57:51;17.07;86.81
71523;HTU21D;59343;51.102;5.884;2023-08-06T08:00:16;16.93;86.58
71523;HTU21D;59343;51.102;5.884;2023-08-06T08:02:43;16.80;86.67
71523;HTU21D;59343;51.102;5.884;2023-08-06T08:05:09;16.71;86.94
71523;HTU21D;59343;51.102;5.884;2023-08-06T08:07:41;16.63;86.92
71523;HTU21D;59343;51.102;5.884;2023-08-06T08:10:07;16.56;87.32
71523;HTU21D;59343;51.102;5.884;2023-08-06T08:12:34;16.49;87.53
71523;HTU21D;59343;51.102;5.884;2023-08-06T08:15:03;16.44;87.82
71523;HTU21D;59343;51.102;5.884;2023-08-06T08:17:30;16.46;88.01
71523;HTU21D;59343;51.102;5.884;2023-08-06T08:19:56;16.44;87.87
71523;HTU21D;59343;51.102;5.884;2023-08-06T08:22:22;16.45;87.93
71523;HTU21D;59343;51.102;5.884;2023-08-06T08:24:48;16.43;87.86
71523;HTU21D;59343;51.102;5.884;2023-08-06T08:27:17;16.39;87.88
71523;HTU21D;59343;51.102;5.884;2023-08-06T08:29:46;16.39;87.82
71523;HTU21D;59343;51.102;5.884;2023-08-06T08:32:12;16.39;87.70
71523;HTU21D;59343;51.102;5.884;2023-08-06T08:34:38;16.36;87.67
71523;HTU21D;59343;51.102;5.884;2023-08-06T08:37:04;16.34;87.64
71523;HTU21D;59343;51.102;5.884;2023-08-06T08:39:31;16.36;87.69
71523;HTU21D;59343;51.102;5.884;2023-08-06T08:41:58;16.35;87.73
71523;HTU21D;59343;51.102;5.884;2023-08-06T08:44:24;16.32;87.91
71523;HTU21D;59343;51.102;5.884;2023-08-06T08:46:54;16.32;88.01
71523;HTU21D;59343;51.102;5.884;2023-08-06T08:49:21;16.31;88.25
71523;HTU21D;59343;51.102;5.884;2023-08-06T08:51:51;16.34;88.44
71523;HTU21D;59343;51.102;5.884;2023-08-06T08:54:23;16.35;88.54
71523;HTU21D;59343;51.102;5.884;2023-08-06T08:57:19;16.37;88.57
71523;HTU21D;59343;51.102;5.884;2023-08-06T09:00:46;16.42;88.32
71523;HTU21D;59343;51.102;5.884;2023-08-06T09:03:52;16.41;87.84
71523;HTU21D;59343;51.102;5.884;2023-08-06T09:07:01;16.39;87.64
71523;HTU21D;59343;51.102;5.884;2023-08-06T09:09:45;16.35;87.59
71523;HTU21D;59343;51.102;5.884;2023-08-06T09:12:22;16.37;87.44
71523;HTU21D;59343;51.102;5.884;2023-08-06T09:14:59;16.43;87.37
71523;HTU21D;59343;51.102;5.884;2023-08-06T09:18:01;16.46;87.37
71523;HTU21D;59343;51.102;5.884;2023-08-06T09:20:44;16.50;87.37
71523;HTU21D;59343;51.102;5.884;2023-08-06T09:23:21;16.49;87.40
71523;HTU21D;59343;51.102;5.884;2023-08-06T09:25:55;16.50;87.62
71523;HTU21D;59343;51.102;5.884;2023-08-06T09:29:05;16.55;87.83
71523;HTU21D;59343;51.102;5.884;2023-08-06T09:31:42;16.66;87.67
71523;HTU21D;59343;51.102;5.884;2023-08-06T09:34:21;16.70;87.44
71523;HTU21D;59343;51.102;5.884;2023-08-06T09:37:35;16.76;87.55
71523;HTU21D;59343;51.102;5.884;2023-08-06T09:41:03;16.86;87.19
71523;HTU21D;59343;51.102;5.884;2023-08-06T09:43:48;16.92;87.07
71523;HTU21D;59343;51.102;5.884;2023-08-06T09:46:59;17.00;87.03
71523;HTU21D;59343;51.102;5.884;2023-08-06T09:49:56;17.06;86.70
71523;HTU21D;59343;51.102;5.884;2023-08-06T09:53:10;17.11;86.52
71523;HTU21D;59343;51.102;5.884;2023-08-06T10:03:16;17.30;86.22
71523;HTU21D;59343;51.102;5.884;2023-08-06T10:07:00;17.37;85.73
71523;HTU21D;59343;51.102;5.884;2023-08-06T10:09:34;17.39;85.52
71523;HTU21D;59343;51.102;5.884;2023-08-06T10:12:42;17.48;85.39
71523;HTU21D;59343;51.102;5.884;2023-08-06T10:15:31;17.50;85.13
71523;HTU21D;59343;51.102;5.884;2023-08-06T10:32:52;17.33;85.57
71523;HTU21D;59343;51.102;5.884;2023-08-06T10:36:43;17.26;85.60
71523;HTU21D;59343;51.102;5.884;2023-08-06T10:46:39;17.24;85.28
71523;HTU21D;59343;51.102;5.884;2023-08-06T11:01:03;17.24;85.90
71523;HTU21D;59343;51.102;5.884;2023-08-06T11:04:30;17.28;85.97
71523;HTU21D;59343;51.102;5.884;2023-08-06T11:07:24;17.29;85.67
71523;HTU21D;59343;51.102;5.884;2023-08-06T11:15:06;17.35;86.14
71523;HTU21D;59343;51.102;5.884;2023-08-06T11:19:17;17.43;86.17
71523;HTU21D;59343;51.102;5.884;2023-08-06T11:31:50;17.46;86.01
71523;HTU21D;59343;51.102;5.884;2023-08-06T11:44:36;17.47;86.35
71523;HTU21D;59343;51.102;5.884;2023-08-06T11:47:41;17.52;86.51
71523;HTU21D;59343;51.102;5.884;2023-08-06T11:51:24;17.53;86.22
71523;HTU21D;59343;51.102;5.884;2023-08-06T12:06:45;17.81;85.90
71523;HTU21D;59343;51.102;5.884;2023-08-06T12:09:44;17.87;85.49
71523;HTU21D;59343;51.102;5.884;2023-08-06T12:12:31;17.98;85.48
71523;HTU21D;59343;51.102;5.884;2023-08-06T12:29:21;18.13;84.39
71523;HTU21D;59343;51.102;5.884;2023-08-06T12:49:07;17.99;83.03
71523;HTU21D;59343;51.102;5.884;2023-08-06T12:52:22;18.06;83.10
71523;HTU21D;59343;51.102;5.884;2023-08-06T12:59:43;18.11;81.77
71523;HTU21D;59343;51.102;5.884;2023-08-06T13:12:48;18.07;81.35
71523;HTU21D;59343;51.102;5.884;2023-08-06T13:15:37;18.10;80.94
71523;HTU21D;59343;51.102;5.884;2023-08-06T13:18:15;18.11;80.67
71523;HTU21D;59343;51.102;5.884;2023-08-06T13:20:46;18.11;80.56
71523;HTU21D;59343;51.102;5.884;2023-08-06T13:23:21;18.07;80.36
71523;HTU21D;59343;51.102;5.884;2023-08-06T13:25:51;18.08;81.01
71523;HTU21D;59343;51.102;5.884;2023-08-06T13:28:50;18.15;80.38
71523;HTU21D;59343;51.102;5.884;2023-08-06T13:31:27;18.17;80.59
71523;HTU21D;59343;51.102;5.884;2023-08-06T13:33:55;18.22;80.22
71523;HTU21D;59343;51.102;5.884;2023-08-06T13:36:31;18.22;79.96
71523;HTU21D;59343;51.102;5.884;2023-08-06T13:39:11;18.17;79.58
71523;HTU21D;59343;51.102;5.884;2023-08-06T13:41:39;18.18;79.72
71523;HTU21D;59343;51.102;5.884;2023-08-06T13:44:07;18.17;79.75
71523;HTU21D;59343;51.102;5.884;2023-08-06T13:46:34;18.20;79.92
71523;HTU21D;59343;51.102;5.884;2023-08-06T13:49:10;18.23;79.84
71523;HTU21D;59343;51.102;5.884;2023-08-06T13:51:38;18.24;79.40
71523;HTU21D;59343;51.102;5.884;2023-08-06T13:54:08;18.25;79.58
71523;HTU21D;59343;51.102;5.884;2023-08-06T13:56:47;18.24;79.98
71523;HTU21D;59343;51.102;5.884;2023-08-06T13:59:45;18.27;79.56
71523;HTU21D;59343;51.102;5.884;2023-08-06T14:02:24;18.27;79.71
71523;HTU21D;59343;51.102;5.884;2023-08-06T14:04:54;18.28;79.75
71523;HTU21D;59343;51.102;5.884;2023-08-06T14:07:21;18.27;80.01
71523;HTU21D;59343;51.102;5.884;2023-08-06T14:09:54;18.34;80.14
71523;HTU21D;59343;51.102;5.884;2023-08-06T14:12:23;18.37;80.11
71523;HTU21D;59343;51.102;5.884;2023-08-06T14:14:53;18.40;79.95
71523;HTU21D;59343;51.102;5.884;2023-08-06T14:17:29;18.42;79.64
71523;HTU21D;59343;51.102;5.884;2023-08-06T14:19:56;18.37;79.67
71523;HTU21D;59343;51.102;5.884;2023-08-06T14:22:22;18.32;79.92
71523;HTU21D;59343;51.102;5.884;2023-08-06T14:24:51;18.26;79.86
71523;HTU21D;59343;51.102;5.884;2023-08-06T14:27:21;18.14;80.07
71523;HTU21D;59343;51.102;5.884;2023-08-06T14:29:50;18.07;80.51
71523;HTU21D;59343;51.102;5.884;2023-08-06T14:32:17;18.09;81.00
71523;HTU21D;59343;51.102;5.884;2023-08-06T14:35:10;18.13;80.91
71523;HTU21D;59343;51.102;5.884;2023-08-06T14:37:42;18.18;81.00
71523;HTU21D;59343;51.102;5.884;2023-08-06T14:40:11;18.21;80.91
71523;HTU21D;59343;51.102;5.884;2023-08-06T14:42:38;18.25;80.42
71523;HTU21D;59343;51.102;5.884;2023-08-06T14:45:08;18.25;80.40
71523;HTU21D;59343;51.102;5.884;2023-08-06T14:48:22;18.20;80.43
71523;HTU21D;59343;51.102;5.884;2023-08-06T14:59:16;17.99;80.68
71523;HTU21D;59343;51.102;5.884;2023-08-06T15:02:14;17.95;80.75
71523;HTU21D;59343;51.102;5.884;2023-08-06T15:04:59;17.96;81.18
71523;HTU21D;59343;51.102;5.884;2023-08-06T15:07:32;17.99;81.75
71523;HTU21D;59343;51.102;5.884;2023-08-06T15:10:19;18.04;81.65
71523;HTU21D;59343;51.102;5.884;2023-08-06T15:12:54;18.10;81.64
71523;HTU21D;59343;51.102;5.884;2023-08-06T15:15:26;18.17;81.71
71523;HTU21D;59343;51.102;5.884;2023-08-06T15:18:11;18.18;81.07
71523;HTU21D;59343;51.102;5.884;2023-08-06T15:21:07;18.17;81.15
71523;HTU21D;59343;51.102;5.884;2023-08-06T15:23:48;18.14;81.30
71523;HTU21D;59343;51.102;5.884;2023-08-06T16:20:44;16.95;86.38
71523;HTU21D;59343;51.102;5.884;2023-08-06T16:23:13;16.92;86.45
71523;HTU21D;59343;51.102;5.884;2023-08-06T16:37:00;16.65;87.37
71523;HTU21D;59343;51.102;5.884;2023-08-06T16:39:27;16.64;87.28
71523;HTU21D;59343;51.102;5.884;2023-08-06T16:41:55;16.62;86.98
71523;HTU21D;59343;51.102;5.884;2023-08-06T16:44:24;16.51;87.06
71523;HTU21D;59343;51.102;5.884;2023-08-06T16:46:55;16.48;87.21
71523;HTU21D;59343;51.102;5.884;2023-08-06T16:49:27;16.47;87.26
71523;HTU21D;59343;51.102;5.884;2023-08-06T16:51:53;16.45;87.25
71523;HTU21D;59343;51.102;5.884;2023-08-06T16:54:20;16.42;87.36
71523;HTU21D;59343;51.102;5.884;2023-08-06T16:56:46;16.42;87.48
71523;HTU21D;59343;51.102;5.884;2023-08-06T16:59:18;16.39;87.54
71523;HTU21D;59343;51.102;5.884;2023-08-06T17:01:45;16.35;87.35
71523;HTU21D;59343;51.102;5.884;2023-08-06T17:04:12;16.37;87.33
71523;HTU21D;59343;51.102;5.884;2023-08-06T17:06:39;16.39;87.32
71523;HTU21D;59343;51.102;5.884;2023-08-06T17:09:06;16.41;87.26
71523;HTU21D;59343;51.102;5.884;2023-08-06T17:11:56;16.43;87.14
71523;HTU21D;59343;51.102;5.884;2023-08-06T17:14:46;16.45;86.90
71523;HTU21D;59343;51.102;5.884;2023-08-06T20:35:25;15.46;84.58
71523;HTU21D;59343;51.102;5.884;2023-08-06T21:11:30;15.38;83.13
71523;HTU21D;59343;51.102;5.884;2023-08-06T21:19:53;15.37;83.08
71523;HTU21D;59343;51.102;5.884;2023-08-06T21:40:41;15.26;84.19
71523;HTU21D;59343;51.102;5.884;2023-08-06T21:43:34;15.26;84.16
71523;HTU21D;59343;51.102;5.884;2023-08-06T22:07:04;15.38;82.50
71523;HTU21D;59343;51.102;5.884;2023-08-06T22:09:35;15.34;82.51
71523;HTU21D;59343;51.102;5.884;2023-08-06T22:37:29;15.38;81.88
71523;HTU21D;59343;51.102;5.884;2023-08-06T22:40:58;15.36;81.76
71523;HTU21D;59343;51.102;5.884;2023-08-06T22:47:54;15.34;81.56
71523;HTU21D;59343;51.102;5.884;2023-08-06T22:59:49;15.39;81.24
71523;HTU21D;59343;51.102;5.884;2023-08-06T23:03:05;15.40;81.05
71523;HTU21D;59343;51.102;5.884;2023-08-06T23:10:01;15.42;80.72
71523;HTU21D;59343;51.102;5.884;2023-08-06T23:13:09;15.42;80.74
71523;HTU21D;59343;51.102;5.884;2023-08-06T23:21:20;15.44;80.58
71523;HTU21D;59343;51.102;5.884;2023-08-06T23:25:34;15.44;80.49
71523;HTU21D;59343;51.102;5.884;2023-08-06T23:29:42;15.48;80.51
71523;HTU21D;59343;51.102;5.884;2023-08-06T23:41:47;15.29;81.14
71523;HTU21D;59343;51.102;5.884;2023-08-06T23:44:34;15.29;81.07
71523;HTU21D;59343;51.102;5.884;2023-08-06T23:48:02;15.26;81.23
71523;HTU21D;59343;51.102;5.884;2023-08-06T23:51:29;15.23;81.33
71523;HTU21D;59343;51.102;5.884;2023-08-06T23:54:18;15.22;81.36
71523;HTU21D;59343;51.102;5.884;2023-08-06T23:57:25;15.21;81.47
